sensor_id;sensor_type;location;lat;lon;timestamp;P1;durP1;ratioP1;P2;durP2;ratioP2
16504;SDS011;8365;51.030;4.696;2023-07-13T00:00:14;7.67;;;2.60;;
16504;SDS011;8365;51.030;4.696;2023-07-13T00:02:47;5.47;;;2.50;;
16504;SDS011;8365;51.030;4.696;2023-07-13T00:05:18;5.27;;;2.60;;
16504;SDS011;8365;51.030;4.696;2023-07-13T00:07:48;7.10;;;2.60;;
16504;SDS011;8365;51.030;4.696;2023-07-13T00:10:20;5.77;;;2.20;;
16504;SDS011;8365;51.030;4.696;2023-07-13T00:12:51;7.93;;;2.83;;
16504;SDS011;8365;51.030;4.696;2023-07-13T00:15:25;6.33;;;2.60;;
16504;SDS011;8365;51.030;4.696;2023-07-13T00:17:56;6.43;;;2.57;;
16504;SDS011;8365;51.030;4.696;2023-07-13T00:20:29;3.80;;;2.33;;
16504;SDS011;8365;51.030;4.696;2023-07-13T00:23:00;4.57;;;2.30;;
16504;SDS011;8365;51.030;4.696;2023-07-13T00:25:30;4.63;;;2.47;;
16504;SDS011;8365;51.030;4.696;2023-07-13T00:28:01;4.63;;;2.50;;
16504;SDS011;8365;51.030;4.696;2023-07-13T00:30:32;5.13;;;2.43;;
16504;SDS011;8365;51.030;4.696;2023-07-13T00:33:02;7.03;;;2.37;;
16504;SDS011;8365;51.030;4.696;2023-07-13T00:35:33;6.10;;;2.43;;
16504;SDS011;8365;51.030;4.696;2023-07-13T00:38:08;6.63;;;2.60;;
16504;SDS011;8365;51.030;4.696;2023-07-13T00:40:38;4.87;;;2.50;;
16504;SDS011;8365;51.030;4.696;2023-07-13T00:43:10;6.50;;;2.50;;
16504;SDS011;8365;51.030;4.696;2023-07-13T00:48:15;6.47;;;2.80;;
16504;SDS011;8365;51.030;4.696;2023-07-13T00:50:52;5.57;;;2.63;;
16504;SDS011;8365;51.030;4.696;2023-07-13T00:53:27;6.37;;;3.00;;
16504;SDS011;8365;51.030;4.696;2023-07-13T00:56:01;6.83;;;2.73;;
16504;SDS011;8365;51.030;4.696;2023-07-13T00:58:32;7.60;;;2.57;;
16504;SDS011;8365;51.030;4.696;2023-07-13T01:01:04;3.97;;;2.70;;
16504;SDS011;8365;51.030;4.696;2023-07-13T01:03:34;4.73;;;2.63;;
16504;SDS011;8365;51.030;4.696;2023-07-13T01:06:05;6.53;;;3.07;;
16504;SDS011;8365;51.030;4.696;2023-07-13T01:08:36;4.90;;;2.83;;
16504;SDS011;8365;51.030;4.696;2023-07-13T01:11:07;5.97;;;2.47;;
16504;SDS011;8365;51.030;4.696;2023-07-13T01:13:38;5.33;;;2.90;;
16504;SDS011;8365;51.030;4.696;2023-07-13T01:16:13;5.87;;;2.77;;
16504;SDS011;8365;51.030;4.696;2023-07-13T01:18:48;5.53;;;2.63;;
16504;SDS011;8365;51.030;4.696;2023-07-13T01:21:18;8.93;;;3.20;;
16504;SDS011;8365;51.030;4.696;2023-07-13T01:23:49;11.00;;;3.20;;
16504;SDS011;8365;51.030;4.696;2023-07-13T01:26:20;4.10;;;2.60;;
16504;SDS011;8365;51.030;4.696;2023-07-13T01:28:50;5.63;;;2.87;;
16504;SDS011;8365;51.030;4.696;2023-07-13T01:31:21;5.10;;;2.70;;
16504;SDS011;8365;51.030;4.696;2023-07-13T01:33:51;7.37;;;3.37;;
16504;SDS011;8365;51.030;4.696;2023-07-13T01:36:25;5.03;;;2.90;;
16504;SDS011;8365;51.030;4.696;2023-07-13T01:38:56;4.83;;;2.80;;
16504;SDS011;8365;51.030;4.696;2023-07-13T01:41:26;7.17;;;2.80;;
16504;SDS011;8365;51.030;4.696;2023-07-13T01:43:57;6.27;;;2.93;;
16504;SDS011;8365;51.030;4.696;2023-07-13T01:46:27;5.90;;;2.80;;
16504;SDS011;8365;51.030;4.696;2023-07-13T01:48:58;5.22;;;2.67;;
16504;SDS011;8365;51.030;4.696;2023-07-13T01:51:28;9.87;;;3.30;;
16504;SDS011;8365;51.030;4.696;2023-07-13T01:53:59;4.90;;;2.93;;
16504;SDS011;8365;51.030;4.696;2023-07-13T01:56:29;8.23;;;3.10;;
16504;SDS011;8365;51.030;4.696;2023-07-13T01:59:00;9.23;;;3.30;;
16504;SDS011;8365;51.030;4.696;2023-07-13T02:01:30;5.93;;;2.87;;
16504;SDS011;8365;51.030;4.696;2023-07-13T02:04:01;6.27;;;2.77;;
16504;SDS011;8365;51.030;4.696;2023-07-13T02:06:32;8.47;;;3.40;;
16504;SDS011;8365;51.030;4.696;2023-07-13T02:09:03;4.70;;;3.07;;
16504;SDS011;8365;51.030;4.696;2023-07-13T02:11:33;7.37;;;3.57;;
16504;SDS011;8365;51.030;4.696;2023-07-13T02:14:04;9.23;;;3.10;;
16504;SDS011;8365;51.030;4.696;2023-07-13T02:16:34;6.40;;;2.80;;
16504;SDS011;8365;51.030;4.696;2023-07-13T02:19:05;7.63;;;2.87;;
16504;SDS011;8365;51.030;4.696;2023-07-13T02:21:36;6.73;;;3.23;;
16504;SDS011;8365;51.030;4.696;2023-07-13T02:24:06;6.70;;;2.90;;
16504;SDS011;8365;51.030;4.696;2023-07-13T02:26:37;5.63;;;2.83;;
16504;SDS011;8365;51.030;4.696;2023-07-13T02:29:07;7.60;;;3.47;;
16504;SDS011;8365;51.030;4.696;2023-07-13T02:31:38;6.70;;;3.60;;
16504;SDS011;8365;51.030;4.696;2023-07-13T02:34:10;5.00;;;3.13;;
16504;SDS011;8365;51.030;4.696;2023-07-13T02:36:41;6.00;;;3.30;;
16504;SDS011;8365;51.030;4.696;2023-07-13T02:39:12;6.07;;;2.77;;
16504;SDS011;8365;51.030;4.696;2023-07-13T02:41:43;6.17;;;3.50;;
16504;SDS011;8365;51.030;4.696;2023-07-13T02:44:14;7.97;;;3.47;;
16504;SDS011;8365;51.030;4.696;2023-07-13T02:46:45;6.03;;;3.00;;
16504;SDS011;8365;51.030;4.696;2023-07-13T02:49:15;8.63;;;3.40;;
16504;SDS011;8365;51.030;4.696;2023-07-13T02:51:46;10.47;;;3.70;;
16504;SDS011;8365;51.030;4.696;2023-07-13T02:54:16;9.33;;;3.57;;
16504;SDS011;8365;51.030;4.696;2023-07-13T02:56:47;5.43;;;2.90;;
16504;SDS011;8365;51.030;4.696;2023-07-13T02:59:17;8.53;;;3.30;;
16504;SDS011;8365;51.030;4.696;2023-07-13T03:01:48;8.77;;;3.40;;
16504;SDS011;8365;51.030;4.696;2023-07-13T03:04:18;6.40;;;3.17;;
16504;SDS011;8365;51.030;4.696;2023-07-13T03:06:49;7.67;;;3.00;;
16504;SDS011;8365;51.030;4.696;2023-07-13T03:09:20;6.77;;;3.20;;
16504;SDS011;8365;51.030;4.696;2023-07-13T03:11:53;6.97;;;3.53;;
16504;SDS011;8365;51.030;4.696;2023-07-13T03:14:27;9.60;;;3.50;;
16504;SDS011;8365;51.030;4.696;2023-07-13T03:16:57;10.13;;;4.03;;
16504;SDS011;8365;51.030;4.696;2023-07-13T03:19:28;9.33;;;3.77;;
16504;SDS011;8365;51.030;4.696;2023-07-13T03:21:58;6.27;;;3.53;;
16504;SDS011;8365;51.030;4.696;2023-07-13T03:24:29;8.60;;;3.67;;
16504;SDS011;8365;51.030;4.696;2023-07-13T03:27:01;8.47;;;3.67;;
16504;SDS011;8365;51.030;4.696;2023-07-13T03:29:32;7.70;;;3.07;;
16504;SDS011;8365;51.030;4.696;2023-07-13T03:32:03;8.43;;;3.87;;
16504;SDS011;8365;51.030;4.696;2023-07-13T03:34:34;8.03;;;3.53;;
16504;SDS011;8365;51.030;4.696;2023-07-13T03:37:05;10.70;;;3.37;;
16504;SDS011;8365;51.030;4.696;2023-07-13T03:39:35;9.53;;;3.70;;
16504;SDS011;8365;51.030;4.696;2023-07-13T03:42:06;10.10;;;3.87;;
16504;SDS011;8365;51.030;4.696;2023-07-13T03:44:36;7.33;;;3.50;;
16504;SDS011;8365;51.030;4.696;2023-07-13T03:47:10;6.97;;;3.50;;
16504;SDS011;8365;51.030;4.696;2023-07-13T03:49:40;7.23;;;3.27;;
16504;SDS011;8365;51.030;4.696;2023-07-13T03:52:11;12.97;;;4.00;;
16504;SDS011;8365;51.030;4.696;2023-07-13T03:54:42;8.43;;;3.53;;
16504;SDS011;8365;51.030;4.696;2023-07-13T03:57:12;5.80;;;3.10;;
16504;SDS011;8365;51.030;4.696;2023-07-13T03:59:43;10.40;;;3.70;;
16504;SDS011;8365;51.030;4.696;2023-07-13T04:02:13;8.17;;;3.93;;
16504;SDS011;8365;51.030;4.696;2023-07-13T04:04:46;7.07;;;3.93;;
16504;SDS011;8365;51.030;4.696;2023-07-13T04:07:17;10.07;;;3.53;;
16504;SDS011;8365;51.030;4.696;2023-07-13T04:09:48;7.33;;;3.83;;
16504;SDS011;8365;51.030;4.696;2023-07-13T04:12:18;9.60;;;3.83;;
16504;SDS011;8365;51.030;4.696;2023-07-13T04:14:49;9.87;;;4.30;;
16504;SDS011;8365;51.030;4.696;2023-07-13T04:17:19;9.47;;;3.70;;
16504;SDS011;8365;51.030;4.696;2023-07-13T04:19:49;7.50;;;3.77;;
16504;SDS011;8365;51.030;4.696;2023-07-13T04:22:20;11.03;;;4.10;;
16504;SDS011;8365;51.030;4.696;2023-07-13T04:24:50;12.20;;;4.07;;
16504;SDS011;8365;51.030;4.696;2023-07-13T04:27:21;10.13;;;4.50;;
16504;SDS011;8365;51.030;4.696;2023-07-13T04:29:51;10.40;;;4.03;;
16504;SDS011;8365;51.030;4.696;2023-07-13T04:32:22;15.03;;;4.53;;
16504;SDS011;8365;51.030;4.696;2023-07-13T04:34:52;11.17;;;3.90;;
16504;SDS011;8365;51.030;4.696;2023-07-13T04:37:26;9.77;;;4.20;;
16504;SDS011;8365;51.030;4.696;2023-07-13T04:39:56;10.80;;;4.10;;
16504;SDS011;8365;51.030;4.696;2023-07-13T04:42:27;10.60;;;4.13;;
16504;SDS011;8365;51.030;4.696;2023-07-13T04:44:57;9.20;;;4.33;;
16504;SDS011;8365;51.030;4.696;2023-07-13T04:47:29;8.90;;;4.40;;
16504;SDS011;8365;51.030;4.696;2023-07-13T04:50:01;8.70;;;4.23;;
16504;SDS011;8365;51.030;4.696;2023-07-13T04:52:31;12.13;;;4.30;;
16504;SDS011;8365;51.030;4.696;2023-07-13T04:55:03;9.93;;;4.30;;
16504;SDS011;8365;51.030;4.696;2023-07-13T04:57:36;8.77;;;4.38;;
16504;SDS011;8365;51.030;4.696;2023-07-13T05:00:06;11.48;;;3.90;;
16504;SDS011;8365;51.030;4.696;2023-07-13T05:02:38;11.10;;;4.17;;
16504;SDS011;8365;51.030;4.696;2023-07-13T05:05:09;11.10;;;4.70;;
16504;SDS011;8365;51.030;4.696;2023-07-13T05:07:39;11.67;;;4.47;;
16504;SDS011;8365;51.030;4.696;2023-07-13T05:10:10;8.83;;;3.97;;
16504;SDS011;8365;51.030;4.696;2023-07-13T05:12:41;9.68;;;3.90;;
16504;SDS011;8365;51.030;4.696;2023-07-13T05:15:11;9.40;;;3.80;;
16504;SDS011;8365;51.030;4.696;2023-07-13T05:17:42;8.27;;;3.80;;
16504;SDS011;8365;51.030;4.696;2023-07-13T05:20:12;11.87;;;4.50;;
16504;SDS011;8365;51.030;4.696;2023-07-13T05:22:43;9.37;;;4.47;;
16504;SDS011;8365;51.030;4.696;2023-07-13T05:25:13;9.90;;;4.50;;
16504;SDS011;8365;51.030;4.696;2023-07-13T05:27:44;10.63;;;4.50;;
16504;SDS011;8365;51.030;4.696;2023-07-13T05:30:15;13.10;;;3.97;;
16504;SDS011;8365;51.030;4.696;2023-07-13T05:32:46;6.90;;;3.80;;
16504;SDS011;8365;51.030;4.696;2023-07-13T05:35:16;12.90;;;4.73;;
16504;SDS011;8365;51.030;4.696;2023-07-13T05:37:47;10.30;;;4.40;;
16504;SDS011;8365;51.030;4.696;2023-07-13T05:40:17;12.63;;;4.30;;
16504;SDS011;8365;51.030;4.696;2023-07-13T05:42:48;9.10;;;4.30;;
16504;SDS011;8365;51.030;4.696;2023-07-13T05:45:18;11.33;;;4.97;;
16504;SDS011;8365;51.030;4.696;2023-07-13T05:47:48;8.70;;;3.97;;
16504;SDS011;8365;51.030;4.696;2023-07-13T05:50:21;12.93;;;4.30;;
16504;SDS011;8365;51.030;4.696;2023-07-13T05:52:52;15.33;;;5.40;;
16504;SDS011;8365;51.030;4.696;2023-07-13T05:55:22;11.80;;;4.57;;
16504;SDS011;8365;51.030;4.696;2023-07-13T05:57:53;10.88;;;4.55;;
16504;SDS011;8365;51.030;4.696;2023-07-13T06:00:24;10.97;;;4.77;;
16504;SDS011;8365;51.030;4.696;2023-07-13T06:02:55;10.90;;;4.53;;
16504;SDS011;8365;51.030;4.696;2023-07-13T06:05:27;10.88;;;4.70;;
16504;SDS011;8365;51.030;4.696;2023-07-13T06:07:59;10.07;;;4.70;;
16504;SDS011;8365;51.030;4.696;2023-07-13T06:10:29;10.65;;;4.78;;
16504;SDS011;8365;51.030;4.696;2023-07-13T06:13:03;13.03;;;4.70;;
16504;SDS011;8365;51.030;4.696;2023-07-13T06:15:33;14.65;;;4.80;;
16504;SDS011;8365;51.030;4.696;2023-07-13T06:18:04;10.90;;;3.93;;
16504;SDS011;8365;51.030;4.696;2023-07-13T06:20:34;17.17;;;5.33;;
16504;SDS011;8365;51.030;4.696;2023-07-13T06:23:05;11.18;;;4.75;;
16504;SDS011;8365;51.030;4.696;2023-07-13T06:25:35;11.40;;;4.97;;
16504;SDS011;8365;51.030;4.696;2023-07-13T06:28:09;12.43;;;4.90;;
16504;SDS011;8365;51.030;4.696;2023-07-13T06:30:42;10.90;;;4.80;;
16504;SDS011;8365;51.030;4.696;2023-07-13T06:33:12;9.47;;;4.13;;
16504;SDS011;8365;51.030;4.696;2023-07-13T06:35:43;12.38;;;4.57;;
16504;SDS011;8365;51.030;4.696;2023-07-13T06:38:13;9.83;;;4.83;;
16504;SDS011;8365;51.030;4.696;2023-07-13T06:40:44;10.43;;;5.07;;
16504;SDS011;8365;51.030;4.696;2023-07-13T06:43:15;8.77;;;4.32;;
16504;SDS011;8365;51.030;4.696;2023-07-13T06:45:46;11.43;;;5.05;;
16504;SDS011;8365;51.030;4.696;2023-07-13T06:48:18;12.60;;;4.72;;
16504;SDS011;8365;51.030;4.696;2023-07-13T06:50:50;12.00;;;4.88;;
16504;SDS011;8365;51.030;4.696;2023-07-13T06:53:21;9.90;;;4.45;;
16504;SDS011;8365;51.030;4.696;2023-07-13T06:55:52;12.38;;;5.10;;
16504;SDS011;8365;51.030;4.696;2023-07-13T06:58:23;9.50;;;4.70;;
16504;SDS011;8365;51.030;4.696;2023-07-13T07:00:53;12.70;;;5.03;;
16504;SDS011;8365;51.030;4.696;2023-07-13T07:03:24;9.82;;;4.72;;
16504;SDS011;8365;51.030;4.696;2023-07-13T07:05:59;11.05;;;4.80;;
16504;SDS011;8365;51.030;4.696;2023-07-13T07:08:41;10.55;;;4.75;;
16504;SDS011;8365;51.030;4.696;2023-07-13T07:11:13;9.65;;;4.15;;
16504;SDS011;8365;51.030;4.696;2023-07-13T07:13:44;11.27;;;4.50;;
16504;SDS011;8365;51.030;4.696;2023-07-13T07:16:15;14.07;;;5.13;;
16504;SDS011;8365;51.030;4.696;2023-07-13T07:18:46;11.18;;;4.93;;
16504;SDS011;8365;51.030;4.696;2023-07-13T07:21:16;9.02;;;5.22;;
16504;SDS011;8365;51.030;4.696;2023-07-13T07:23:47;8.45;;;4.57;;
16504;SDS011;8365;51.030;4.696;2023-07-13T07:26:17;10.13;;;4.88;;
16504;SDS011;8365;51.030;4.696;2023-07-13T07:28:48;12.07;;;4.40;;
16504;SDS011;8365;51.030;4.696;2023-07-13T07:31:18;12.60;;;5.05;;
16504;SDS011;8365;51.030;4.696;2023-07-13T07:33:51;10.85;;;4.40;;
16504;SDS011;8365;51.030;4.696;2023-07-13T07:36:22;10.57;;;4.40;;
16504;SDS011;8365;51.030;4.696;2023-07-13T07:38:52;10.63;;;4.75;;
16504;SDS011;8365;51.030;4.696;2023-07-13T07:41:23;15.25;;;5.28;;
16504;SDS011;8365;51.030;4.696;2023-07-13T07:43:56;12.05;;;4.88;;
16504;SDS011;8365;51.030;4.696;2023-07-13T07:46:26;10.85;;;4.40;;
16504;SDS011;8365;51.030;4.696;2023-07-13T07:48:58;10.77;;;4.75;;
16504;SDS011;8365;51.030;4.696;2023-07-13T07:51:28;11.43;;;4.82;;
16504;SDS011;8365;51.030;4.696;2023-07-13T07:54:01;10.55;;;4.50;;
16504;SDS011;8365;51.030;4.696;2023-07-13T07:56:31;9.00;;;4.10;;
16504;SDS011;8365;51.030;4.696;2023-07-13T07:59:02;10.55;;;4.47;;
16504;SDS011;8365;51.030;4.696;2023-07-13T08:01:33;10.20;;;4.43;;
16504;SDS011;8365;51.030;4.696;2023-07-13T08:04:03;7.82;;;4.43;;
16504;SDS011;8365;51.030;4.696;2023-07-13T08:06:34;12.00;;;4.88;;
16504;SDS011;8365;51.030;4.696;2023-07-13T08:09:04;10.05;;;4.05;;
16504;SDS011;8365;51.030;4.696;2023-07-13T08:11:35;9.75;;;4.32;;
16504;SDS011;8365;51.030;4.696;2023-07-13T08:14:06;7.10;;;3.90;;
16504;SDS011;8365;51.030;4.696;2023-07-13T08:16:36;8.18;;;4.30;;
16504;SDS011;8365;51.030;4.696;2023-07-13T08:19:07;10.40;;;4.50;;
16504;SDS011;8365;51.030;4.696;2023-07-13T08:21:37;9.23;;;4.15;;
16504;SDS011;8365;51.030;4.696;2023-07-13T08:24:08;11.25;;;4.60;;
16504;SDS011;8365;51.030;4.696;2023-07-13T08:26:42;9.35;;;4.10;;
16504;SDS011;8365;51.030;4.696;2023-07-13T08:29:12;10.40;;;4.43;;
16504;SDS011;8365;51.030;4.696;2023-07-13T08:31:43;10.35;;;4.50;;
16504;SDS011;8365;51.030;4.696;2023-07-13T08:34:13;9.65;;;4.00;;
16504;SDS011;8365;51.030;4.696;2023-07-13T08:36:44;9.60;;;4.20;;
16504;SDS011;8365;51.030;4.696;2023-07-13T08:39:15;10.50;;;4.10;;
16504;SDS011;8365;51.030;4.696;2023-07-13T08:41:46;9.73;;;4.00;;
16504;SDS011;8365;51.030;4.696;2023-07-13T08:47:46;8.43;;;4.07;;
16504;SDS011;8365;51.030;4.696;2023-07-13T08:50:29;10.35;;;3.85;;
16504;SDS011;8365;51.030;4.696;2023-07-13T08:53:05;10.27;;;4.25;;
16504;SDS011;8365;51.030;4.696;2023-07-13T08:55:43;10.52;;;4.28;;
16504;SDS011;8365;51.030;4.696;2023-07-13T08:58:15;9.63;;;3.63;;
16504;SDS011;8365;51.030;4.696;2023-07-13T09:07:20;8.85;;;4.05;;
16504;SDS011;8365;51.030;4.696;2023-07-13T09:12:09;7.13;;;3.78;;
16504;SDS011;8365;51.030;4.696;2023-07-13T09:15:43;5.40;;;3.70;;
16504;SDS011;8365;51.030;4.696;2023-07-13T09:20:47;6.82;;;3.15;;
16504;SDS011;8365;51.030;4.696;2023-07-13T09:23:23;7.03;;;3.60;;
16504;SDS011;8365;51.030;4.696;2023-07-13T09:26:00;5.75;;;3.47;;
16504;SDS011;8365;51.030;4.696;2023-07-13T09:28:44;4.15;;;3.33;;
16504;SDS011;8365;51.030;4.696;2023-07-13T09:31:19;6.93;;;3.33;;
16504;SDS011;8365;51.030;4.696;2023-07-13T09:33:54;6.28;;;3.75;;
16504;SDS011;8365;51.030;4.696;2023-07-13T09:36:29;7.07;;;3.03;;
16504;SDS011;8365;51.030;4.696;2023-07-13T09:41:43;6.82;;;3.25;;
16504;SDS011;8365;51.030;4.696;2023-07-13T09:44:35;5.35;;;2.78;;
16504;SDS011;8365;51.030;4.696;2023-07-13T09:47:17;4.97;;;2.97;;
16504;SDS011;8365;51.030;4.696;2023-07-13T09:50:15;5.18;;;3.35;;
16504;SDS011;8365;51.030;4.696;2023-07-13T09:52:49;9.15;;;3.38;;
16504;SDS011;8365;51.030;4.696;2023-07-13T09:58:21;4.75;;;2.88;;
16504;SDS011;8365;51.030;4.696;2023-07-13T10:00:58;5.55;;;3.20;;
16504;SDS011;8365;51.030;4.696;2023-07-13T10:03:33;5.72;;;3.28;;
16504;SDS011;8365;51.030;4.696;2023-07-13T10:06:13;7.05;;;2.90;;
16504;SDS011;8365;51.030;4.696;2023-07-13T10:08:48;6.47;;;3.00;;
16504;SDS011;8365;51.030;4.696;2023-07-13T10:11:22;5.32;;;2.63;;
16504;SDS011;8365;51.030;4.696;2023-07-13T10:16:28;5.15;;;2.67;;
16504;SDS011;8365;51.030;4.696;2023-07-13T10:19:10;5.80;;;2.90;;
16504;SDS011;8365;51.030;4.696;2023-07-13T10:21:55;5.68;;;2.88;;
16504;SDS011;8365;51.030;4.696;2023-07-13T10:24:30;5.15;;;2.70;;
16504;SDS011;8365;51.030;4.696;2023-07-13T10:27:05;6.30;;;2.47;;
16504;SDS011;8365;51.030;4.696;2023-07-13T10:32:31;5.60;;;2.65;;
16504;SDS011;8365;51.030;4.696;2023-07-13T10:35:01;6.40;;;2.92;;
16504;SDS011;8365;51.030;4.696;2023-07-13T10:37:43;5.45;;;3.13;;
16504;SDS011;8365;51.030;4.696;2023-07-13T10:40:23;7.32;;;2.92;;
16504;SDS011;8365;51.030;4.696;2023-07-13T10:43:00;3.67;;;2.60;;
16504;SDS011;8365;51.030;4.696;2023-07-13T10:45:35;5.97;;;3.03;;
16504;SDS011;8365;51.030;4.696;2023-07-13T10:48:09;4.80;;;2.70;;
16504;SDS011;8365;51.030;4.696;2023-07-13T10:50:45;4.35;;;2.65;;
16504;SDS011;8365;51.030;4.696;2023-07-13T10:56:00;5.68;;;2.92;;
16504;SDS011;8365;51.030;4.696;2023-07-13T10:58:33;6.60;;;2.97;;
16504;SDS011;8365;51.030;4.696;2023-07-13T11:01:08;6.65;;;2.90;;
16504;SDS011;8365;51.030;4.696;2023-07-13T11:04:00;5.72;;;2.72;;
16504;SDS011;8365;51.030;4.696;2023-07-13T11:06:39;5.57;;;2.50;;
16504;SDS011;8365;51.030;4.696;2023-07-13T11:09:31;4.85;;;2.70;;
16504;SDS011;8365;51.030;4.696;2023-07-13T11:12:06;6.90;;;2.80;;
16504;SDS011;8365;51.030;4.696;2023-07-13T11:15:05;3.85;;;2.60;;
16504;SDS011;8365;51.030;4.696;2023-07-13T11:17:47;5.95;;;3.00;;
16504;SDS011;8365;51.030;4.696;2023-07-13T11:20:20;2.95;;;2.15;;
16504;SDS011;8365;51.030;4.696;2023-07-13T11:23:16;5.93;;;2.92;;
16504;SDS011;8365;51.030;4.696;2023-07-13T11:25:57;3.45;;;2.67;;
16504;SDS011;8365;51.030;4.696;2023-07-13T11:28:30;6.03;;;2.78;;
16504;SDS011;8365;51.030;4.696;2023-07-13T11:31:03;5.65;;;2.80;;
16504;SDS011;8365;51.030;4.696;2023-07-13T11:36:17;5.10;;;2.50;;
16504;SDS011;8365;51.030;4.696;2023-07-13T11:41:35;9.85;;;3.17;;
16504;SDS011;8365;51.030;4.696;2023-07-13T11:44:19;4.20;;;2.60;;
16504;SDS011;8365;51.030;4.696;2023-07-13T11:46:52;4.68;;;2.63;;
16504;SDS011;8365;51.030;4.696;2023-07-13T11:49:30;4.03;;;2.42;;
16504;SDS011;8365;51.030;4.696;2023-07-13T11:52:02;6.70;;;2.80;;
16504;SDS011;8365;51.030;4.696;2023-07-13T11:54:34;5.78;;;2.95;;
16504;SDS011;8365;51.030;4.696;2023-07-13T12:00:13;8.60;;;3.45;;
16504;SDS011;8365;51.030;4.696;2023-07-13T12:02:51;4.72;;;2.65;;
16504;SDS011;8365;51.030;4.696;2023-07-13T12:05:23;5.03;;;2.67;;
16504;SDS011;8365;51.030;4.696;2023-07-13T12:07:54;5.65;;;3.15;;
16504;SDS011;8365;51.030;4.696;2023-07-13T12:10:28;4.18;;;2.88;;
16504;SDS011;8365;51.030;4.696;2023-07-13T12:13:04;5.60;;;3.08;;
16504;SDS011;8365;51.030;4.696;2023-07-13T12:15:39;4.88;;;2.92;;
16504;SDS011;8365;51.030;4.696;2023-07-13T12:18:13;4.63;;;2.58;;
16504;SDS011;8365;51.030;4.696;2023-07-13T12:20:45;3.90;;;2.67;;
16504;SDS011;8365;51.030;4.696;2023-07-13T12:25:51;7.30;;;3.85;;
16504;SDS011;8365;51.030;4.696;2023-07-13T12:31:06;6.55;;;3.70;;
16504;SDS011;8365;51.030;4.696;2023-07-13T12:33:55;6.18;;;3.92;;
16504;SDS011;8365;51.030;4.696;2023-07-13T12:36:31;5.65;;;3.90;;
16504;SDS011;8365;51.030;4.696;2023-07-13T12:39:05;6.32;;;3.67;;
16504;SDS011;8365;51.030;4.696;2023-07-13T12:41:51;5.22;;;3.47;;
16504;SDS011;8365;51.030;4.696;2023-07-13T12:44:29;7.10;;;3.60;;
16504;SDS011;8365;51.030;4.696;2023-07-13T12:47:05;4.60;;;3.50;;
16504;SDS011;8365;51.030;4.696;2023-07-13T12:49:44;6.63;;;3.53;;
16504;SDS011;8365;51.030;4.696;2023-07-13T12:52:21;7.45;;;3.70;;
16504;SDS011;8365;51.030;4.696;2023-07-13T12:55:13;5.10;;;4.03;;
16504;SDS011;8365;51.030;4.696;2023-07-13T12:57:54;5.07;;;3.60;;
16504;SDS011;8365;51.030;4.696;2023-07-13T13:00:35;6.28;;;3.78;;
16504;SDS011;8365;51.030;4.696;2023-07-13T13:05:49;5.18;;;3.55;;
16504;SDS011;8365;51.030;4.696;2023-07-13T13:08:19;3.97;;;3.47;;
16504;SDS011;8365;51.030;4.696;2023-07-13T13:10:50;5.13;;;4.00;;
16504;SDS011;8365;51.030;4.696;2023-07-13T13:13:20;3.40;;;3.10;;
16504;SDS011;8365;51.030;4.696;2023-07-13T13:15:51;3.38;;;2.80;;
16504;SDS011;8365;51.030;4.696;2023-07-13T13:18:22;5.80;;;3.58;;
16504;SDS011;8365;51.030;4.696;2023-07-13T13:20:56;3.10;;;2.80;;
16504;SDS011;8365;51.030;4.696;2023-07-13T13:23:26;5.78;;;3.75;;
16504;SDS011;8365;51.030;4.696;2023-07-13T13:25:57;4.45;;;3.20;;
16504;SDS011;8365;51.030;4.696;2023-07-13T13:28:28;2.95;;;2.65;;
16504;SDS011;8365;51.030;4.696;2023-07-13T13:30:59;4.68;;;3.03;;
16504;SDS011;8365;51.030;4.696;2023-07-13T13:33:29;3.88;;;3.13;;
16504;SDS011;8365;51.030;4.696;2023-07-13T13:36:00;4.10;;;3.15;;
16504;SDS011;8365;51.030;4.696;2023-07-13T13:38:31;4.00;;;2.65;;
16504;SDS011;8365;51.030;4.696;2023-07-13T13:41:02;5.18;;;2.88;;
16504;SDS011;8365;51.030;4.696;2023-07-13T13:43:32;3.42;;;3.08;;
16504;SDS011;8365;51.030;4.696;2023-07-13T13:46:11;4.85;;;3.10;;
16504;SDS011;8365;51.030;4.696;2023-07-13T13:48:48;4.10;;;3.28;;
16504;SDS011;8365;51.030;4.696;2023-07-13T13:51:19;4.20;;;3.00;;
16504;SDS011;8365;51.030;4.696;2023-07-13T13:53:51;4.75;;;3.10;;
16504;SDS011;8365;51.030;4.696;2023-07-13T13:56:23;4.47;;;2.70;;
16504;SDS011;8365;51.030;4.696;2023-07-13T13:58:53;5.07;;;3.08;;
16504;SDS011;8365;51.030;4.696;2023-07-13T14:01:30;4.03;;;2.85;;
16504;SDS011;8365;51.030;4.696;2023-07-13T14:04:01;4.13;;;3.03;;
16504;SDS011;8365;51.030;4.696;2023-07-13T14:06:32;3.47;;;2.70;;
16504;SDS011;8365;51.030;4.696;2023-07-13T14:09:04;4.32;;;2.70;;
16504;SDS011;8365;51.030;4.696;2023-07-13T14:11:38;4.63;;;3.17;;
16504;SDS011;8365;51.030;4.696;2023-07-13T14:14:14;2.75;;;2.55;;
16504;SDS011;8365;51.030;4.696;2023-07-13T14:16:48;3.70;;;2.75;;
16504;SDS011;8365;51.030;4.696;2023-07-13T14:19:23;2.88;;;2.50;;
16504;SDS011;8365;51.030;4.696;2023-07-13T14:21:54;2.55;;;2.22;;
16504;SDS011;8365;51.030;4.696;2023-07-13T14:24:24;3.20;;;2.67;;
16504;SDS011;8365;51.030;4.696;2023-07-13T14:26:54;3.17;;;2.83;;
16504;SDS011;8365;51.030;4.696;2023-07-13T14:29:25;5.60;;;2.85;;
16504;SDS011;8365;51.030;4.696;2023-07-13T14:31:55;5.30;;;2.60;;
16504;SDS011;8365;51.030;4.696;2023-07-13T14:34:28;3.50;;;2.30;;
16504;SDS011;8365;51.030;4.696;2023-07-13T14:36:58;6.20;;;2.70;;
16504;SDS011;8365;51.030;4.696;2023-07-13T14:39:29;2.67;;;2.47;;
16504;SDS011;8365;51.030;4.696;2023-07-13T14:42:00;2.97;;;2.03;;
16504;SDS011;8365;51.030;4.696;2023-07-13T14:44:30;4.00;;;2.95;;
16504;SDS011;8365;51.030;4.696;2023-07-13T14:47:03;4.30;;;2.58;;
16504;SDS011;8365;51.030;4.696;2023-07-13T14:49:39;3.50;;;2.47;;
16504;SDS011;8365;51.030;4.696;2023-07-13T14:52:13;4.65;;;2.67;;
16504;SDS011;8365;51.030;4.696;2023-07-13T14:54:46;3.58;;;2.30;;
16504;SDS011;8365;51.030;4.696;2023-07-13T14:57:17;4.38;;;2.58;;
16504;SDS011;8365;51.030;4.696;2023-07-13T14:59:49;3.03;;;2.30;;
16504;SDS011;8365;51.030;4.696;2023-07-13T15:05:08;2.97;;;2.60;;
16504;SDS011;8365;51.030;4.696;2023-07-13T15:07:46;3.22;;;2.25;;
16504;SDS011;8365;51.030;4.696;2023-07-13T15:10:23;2.60;;;2.30;;
16504;SDS011;8365;51.030;4.696;2023-07-13T15:13:00;2.10;;;1.90;;
16504;SDS011;8365;51.030;4.696;2023-07-13T15:15:42;4.25;;;2.20;;
16504;SDS011;8365;51.030;4.696;2023-07-13T15:18:16;5.07;;;2.40;;
16504;SDS011;8365;51.030;4.696;2023-07-13T15:20:49;5.28;;;2.42;;
16504;SDS011;8365;51.030;4.696;2023-07-13T15:23:20;3.55;;;2.50;;
16504;SDS011;8365;51.030;4.696;2023-07-13T15:25:52;5.43;;;2.40;;
16504;SDS011;8365;51.030;4.696;2023-07-13T15:28:25;3.53;;;2.50;;
16504;SDS011;8365;51.030;4.696;2023-07-13T15:30:55;2.85;;;2.10;;
16504;SDS011;8365;51.030;4.696;2023-07-13T15:33:27;3.00;;;2.40;;
16504;SDS011;8365;51.030;4.696;2023-07-13T15:35:58;2.47;;;2.05;;
16504;SDS011;8365;51.030;4.696;2023-07-13T15:38:29;5.55;;;2.30;;
16504;SDS011;8365;51.030;4.696;2023-07-13T15:41:01;3.78;;;2.22;;
16504;SDS011;8365;51.030;4.696;2023-07-13T15:43:39;3.80;;;2.10;;
16504;SDS011;8365;51.030;4.696;2023-07-13T15:46:10;3.85;;;2.22;;
16504;SDS011;8365;51.030;4.696;2023-07-13T15:48:40;3.05;;;2.22;;
16504;SDS011;8365;51.030;4.696;2023-07-13T15:51:12;3.75;;;2.22;;
16504;SDS011;8365;51.030;4.696;2023-07-13T15:53:50;2.15;;;1.95;;
16504;SDS011;8365;51.030;4.696;2023-07-13T15:56:23;3.97;;;2.30;;
16504;SDS011;8365;51.030;4.696;2023-07-13T15:58:56;7.00;;;2.60;;
16504;SDS011;8365;51.030;4.696;2023-07-13T16:01:27;3.42;;;2.10;;
16504;SDS011;8365;51.030;4.696;2023-07-13T16:03:57;3.83;;;2.20;;
16504;SDS011;8365;51.030;4.696;2023-07-13T16:06:28;4.15;;;2.30;;
16504;SDS011;8365;51.030;4.696;2023-07-13T16:09:06;2.90;;;2.00;;
16504;SDS011;8365;51.030;4.696;2023-07-13T16:11:40;2.88;;;2.17;;
16504;SDS011;8365;51.030;4.696;2023-07-13T16:14:12;2.83;;;2.28;;
16504;SDS011;8365;51.030;4.696;2023-07-13T16:16:44;2.33;;;1.83;;
16504;SDS011;8365;51.030;4.696;2023-07-13T16:19:15;2.75;;;2.20;;
16504;SDS011;8365;51.030;4.696;2023-07-13T16:21:47;3.28;;;2.20;;